Time;durP1;ratioP1;P1;durP2;ratioP2;P2;SDS_P1;SDS_P2;PMS_P1;PMS_P2;Temp;Humidity;BMP_temperature;BMP_pressure;BME280_temperature;BME280_humidity;BME280_pressure;Samples;Min_cycle;Max_cycle;Signal;HPM_P1;HPM_P2
2023/03/03 00:00:14;;;;;;;16.97;6.37;;;3.30;99.90;;;;;;5007274;28;20458;-70
2023/03/03 00:02:41;;;;;;;10.43;4.93;;;3.10;99.90;;;;;;4998661;28;20467;-70
2023/03/03 00:05:09;;;;;;;3.90;3.63;;;3.10;99.90;;;;;;5003660;28;20839;-70
2023/03/03 00:07:36;;;;;;;10.13;7.17;;;3.10;99.90;;;;;;5003886;28;20480;-70
2023/03/03 00:10:03;;;;;;;6.60;4.00;;;3.20;99.90;;;;;;5006421;28;20438;-70
2023/03/03 00:12:31;;;;;;;11.93;6.30;;;3.10;99.90;;;;;;5003297;28;20519;-70
2023/03/03 00:14:58;;;;;;;14.90;6.67;;;3.00;99.90;;;;;;5001922;28;20428;-70
2023/03/03 00:17:27;;;;;;;18.50;8.90;;;3.10;99.90;;;;;;5005398;28;20457;-69
2023/03/03 00:19:54;;;;;;;12.93;4.97;;;3.20;99.90;;;;;;5007846;28;20527;-71
2023/03/03 00:22:28;;;;;;;15.07;6.03;;;3.10;99.90;;;;;;5008440;28;20460;-70
2023/03/03 00:24:55;;;;;;;12.50;7.30;;;3.10;99.90;;;;;;4999126;28;20476;-70
2023/03/03 00:27:28;;;;;;;2.27;2.07;;;3.10;99.90;;;;;;5011816;28;20452;-70
2023/03/03 00:29:57;;;;;;;11.60;5.70;;;3.20;99.90;;;;;;5009093;28;20461;-70
2023/03/03 00:32:27;;;;;;;12.33;5.40;;;3.20;99.90;;;;;;5005983;28;20449;-70
2023/03/03 00:34:56;;;;;;;19.60;7.17;;;3.20;99.90;;;;;;5010587;28;20522;-70
2023/03/03 00:37:28;;;;;;;14.43;7.60;;;3.30;99.90;;;;;;5000330;28;21044;-70
2023/03/03 00:40:03;;;;;;;13.47;7.90;;;3.20;99.90;;;;;;5005449;28;20773;-70
2023/03/03 00:42:32;;;;;;;19.30;7.90;;;3.10;99.90;;;;;;4979862;28;20468;-70
2023/03/03 00:45:01;;;;;;;12.23;7.37;;;3.10;99.90;;;;;;5017266;28;20481;-70
2023/03/03 00:47:30;;;;;;;20.63;7.20;;;3.10;99.90;;;;;;5014684;28;20563;-71
2023/03/03 00:50:29;;;;;;;11.43;6.67;;;3.00;99.90;;;;;;5015917;28;20460;-70
2023/03/03 00:53:10;;;;;;;14.20;7.63;;;3.00;99.90;;;;;;5002333;28;20545;-71
2023/03/03 00:55:38;;;;;;;14.23;7.13;;;3.10;99.90;;;;;;5012514;28;20445;-70
2023/03/03 00:58:05;;;;;;;6.00;4.77;;;3.10;99.90;;;;;;5007861;28;20485;-70
2023/03/03 01:00:34;;;;;;;9.17;3.50;;;3.20;99.90;;;;;;5005690;28;20458;-71
2023/03/03 01:03:02;;;;;;;17.03;6.50;;;3.30;99.90;;;;;;5005825;28;20550;-70
2023/03/03 01:05:30;;;;;;;24.73;7.63;;;3.50;99.90;;;;;;5004679;28;20548;-70
2023/03/03 01:07:57;;;;;;;15.63;6.33;;;3.30;99.90;;;;;;5008846;28;20482;-71
2023/03/03 01:10:24;;;;;;;13.67;6.47;;;3.30;99.90;;;;;;5011317;28;20463;-70
2023/03/03 01:12:51;;;;;;;10.70;5.93;;;3.30;99.90;;;;;;4990038;28;20424;-70
2023/03/03 01:15:18;;;;;;;9.40;5.10;;;3.30;99.90;;;;;;5007772;28;20505;-71
2023/03/03 01:17:46;;;;;;;10.13;5.50;;;3.20;99.90;;;;;;5010266;28;21018;-71
2023/03/03 01:20:14;;;;;;;19.27;9.93;;;3.50;99.90;;;;;;5009009;28;20944;-71
2023/03/03 01:22:42;;;;;;;14.57;5.27;;;3.50;99.90;;;;;;5006353;28;20476;-71
2023/03/03 01:25:09;;;;;;;11.97;6.83;;;3.50;99.90;;;;;;5003745;28;21008;-71
2023/03/03 01:27:37;;;;;;;10.10;6.10;;;3.50;99.90;;;;;;5006331;28;20954;-71
2023/03/03 01:30:05;;;;;;;10.90;5.50;;;3.50;99.90;;;;;;5002849;28;20465;-70
2023/03/03 01:32:32;;;;;;;12.83;6.23;;;3.30;99.90;;;;;;5011079;28;20515;-70
2023/03/03 01:35:00;;;;;;;6.97;5.20;;;3.40;99.90;;;;;;5014776;28;20474;-71
2023/03/03 01:37:27;;;;;;;16.27;5.13;;;3.50;99.90;;;;;;5011444;28;20588;-70
2023/03/03 01:39:55;;;;;;;15.70;8.00;;;3.50;99.90;;;;;;5007426;28;21008;-70
2023/03/03 01:42:23;;;;;;;11.60;7.60;;;3.40;99.90;;;;;;5007153;28;20431;-70
2023/03/03 01:45:09;;;;;;;4.03;2.37;;;3.30;99.90;;;;;;5004256;28;20896;-70
2023/03/03 01:47:36;;;;;;;11.43;6.47;;;3.20;99.90;;;;;;5014224;28;20689;-70
2023/03/03 01:50:12;;;;;;;7.80;4.50;;;3.30;99.90;;;;;;5009219;28;20437;-70
2023/03/03 01:52:42;;;;;;;8.90;6.20;;;3.00;99.90;;;;;;5005705;28;20438;-70
2023/03/03 01:55:15;;;;;;;11.67;4.97;;;3.00;99.90;;;;;;5010963;28;20952;-70
2023/03/03 01:57:45;;;;;;;12.67;6.60;;;2.90;99.90;;;;;;5010082;28;20925;-71
2023/03/03 02:00:14;;;;;;;7.70;4.07;;;2.90;99.90;;;;;;5013459;28;20468;-70
2023/03/03 02:02:42;;;;;;;5.70;3.40;;;3.00;99.90;;;;;;5005927;28;20470;-70
2023/03/03 02:05:12;;;;;;;5.63;3.20;;;2.90;99.90;;;;;;5002251;28;21012;-70
2023/03/03 02:07:39;;;;;;;9.43;4.93;;;2.90;99.90;;;;;;5005255;28;20478;-71
2023/03/03 02:10:10;;;;;;;7.13;4.57;;;2.90;99.90;;;;;;5009730;28;20507;-69
2023/03/03 02:12:41;;;;;;;11.47;5.77;;;3.10;99.90;;;;;;5023282;28;20484;-70
2023/03/03 02:15:20;;;;;;;7.17;6.10;;;3.00;99.90;;;;;;5024440;28;20468;-70
2023/03/03 02:17:49;;;;;;;15.03;6.10;;;3.10;99.90;;;;;;5009149;28;20564;-70
2023/03/03 02:20:28;;;;;;;17.20;7.87;;;3.00;99.90;;;;;;5013128;28;20911;-70
2023/03/03 02:23:05;;;;;;;27.97;9.63;;;3.20;99.90;;;;;;5008149;28;20432;-70
2023/03/03 02:25:40;;;;;;;15.07;6.30;;;3.20;99.90;;;;;;5010625;28;20473;-69
2023/03/03 02:28:09;;;;;;;21.93;6.10;;;3.20;99.90;;;;;;5008162;28;20449;-71
2023/03/03 02:30:39;;;;;;;14.20;5.57;;;3.20;99.90;;;;;;5024822;28;20929;-70
2023/03/03 02:33:06;;;;;;;15.07;6.03;;;3.20;99.90;;;;;;5009696;28;20560;-70
2023/03/03 02:35:36;;;;;;;13.37;5.97;;;3.20;99.90;;;;;;5004611;28;20434;-70
2023/03/03 02:38:12;;;;;;;16.70;7.83;;;3.20;99.90;;;;;;5001433;28;20561;-71
2023/03/03 02:40:48;;;;;;;6.80;3.17;;;3.20;99.90;;;;;;5006350;28;20511;-70
2023/03/03 02:43:18;;;;;;;15.60;7.07;;;3.20;99.90;;;;;;5004734;28;20496;-70
2023/03/03 02:45:46;;;;;;;18.27;8.20;;;3.10;99.90;;;;;;5005019;28;20560;-70
2023/03/03 02:48:12;;;;;;;17.20;5.43;;;3.00;99.90;;;;;;5011992;28;20934;-70
2023/03/03 02:50:39;;;;;;;14.83;6.50;;;3.10;99.90;;;;;;5014360;28;20458;-71
2023/03/03 02:53:06;;;;;;;17.57;6.33;;;3.20;99.90;;;;;;5002833;28;20519;-70
2023/03/03 02:55:33;;;;;;;15.77;5.80;;;3.20;99.90;;;;;;5006729;28;20851;-70
2023/03/03 02:58:00;;;;;;;19.77;6.03;;;3.00;99.90;;;;;;5011062;28;20535;-70
2023/03/03 03:00:28;;;;;;;18.23;5.60;;;3.10;99.90;;;;;;5006703;28;20518;-70
2023/03/03 03:02:55;;;;;;;3.43;2.70;;;3.00;99.90;;;;;;5003751;28;20484;-70
2023/03/03 03:05:22;;;;;;;19.67;4.07;;;3.00;99.90;;;;;;5005161;28;20458;-70
2023/03/03 03:07:49;;;;;;;9.30;4.47;;;3.00;99.90;;;;;;5005934;28;20449;-70
2023/03/03 03:10:16;;;;;;;10.93;4.27;;;2.70;99.90;;;;;;5012069;28;20464;-71
2023/03/03 03:12:46;;;;;;;8.43;3.70;;;2.70;99.90;;;;;;5003710;28;20484;-70
2023/03/03 03:15:13;;;;;;;9.73;6.63;;;2.70;99.90;;;;;;5009160;28;20453;-70
2023/03/03 03:17:41;;;;;;;9.97;5.10;;;2.60;99.90;;;;;;5009906;28;20488;-70
2023/03/03 03:20:09;;;;;;;10.93;5.60;;;2.60;99.90;;;;;;5001505;28;20470;-70
2023/03/03 03:22:35;;;;;;;15.43;9.63;;;2.70;99.90;;;;;;5005413;28;20438;-71
2023/03/03 03:25:02;;;;;;;13.93;6.13;;;2.70;99.90;;;;;;5005252;28;20556;-71
2023/03/03 03:27:29;;;;;;;9.43;5.03;;;2.80;99.90;;;;;;5010238;28;20497;-71
2023/03/03 03:29:56;;;;;;;8.33;4.43;;;2.70;99.90;;;;;;5008226;28;20522;-70
2023/03/03 03:32:23;;;;;;;13.30;3.40;;;2.50;99.90;;;;;;5006993;28;20541;-70
2023/03/03 03:34:51;;;;;;;11.20;6.43;;;2.60;99.90;;;;;;5014960;28;20484;-70
2023/03/03 03:37:18;;;;;;;9.93;5.30;;;2.50;99.90;;;;;;5007928;28;20451;-71
2023/03/03 03:39:45;;;;;;;10.80;3.40;;;2.30;99.90;;;;;;5006220;28;20448;-71
2023/03/03 03:42:12;;;;;;;7.70;5.30;;;2.50;99.90;;;;;;5003977;28;20439;-70
2023/03/03 03:44:39;;;;;;;3.67;2.50;;;2.50;99.90;;;;;;5009834;28;20852;-71
2023/03/03 03:47:06;;;;;;;9.07;4.37;;;2.30;99.90;;;;;;5001439;28;20496;-70
2023/03/03 03:49:33;;;;;;;5.13;4.53;;;2.00;99.90;;;;;;5007740;28;21001;-70
2023/03/03 03:52:01;;;;;;;8.53;4.27;;;2.00;99.90;;;;;;5021034;28;20433;-69
2023/03/03 03:54:28;;;;;;;12.20;4.77;;;2.10;99.90;;;;;;5000673;28;20468;-70
2023/03/03 03:56:55;;;;;;;9.80;3.57;;;2.10;99.90;;;;;;5008539;28;20521;-70
2023/03/03 03:59:22;;;;;;;6.73;4.77;;;2.10;99.90;;;;;;4999418;28;20530;-70
2023/03/03 04:01:49;;;;;;;6.57;3.70;;;2.30;99.90;;;;;;5002904;28;20489;-71
2023/03/03 04:04:16;;;;;;;3.77;3.07;;;2.30;99.90;;;;;;5001075;28;20460;-70
2023/03/03 04:06:43;;;;;;;8.90;4.43;;;2.20;99.90;;;;;;4998401;28;20463;-70
2023/03/03 04:09:11;;;;;;;5.43;3.60;;;2.20;99.90;;;;;;5006927;28;20482;-70
2023/03/03 04:11:38;;;;;;;8.40;4.87;;;2.30;99.90;;;;;;5004279;28;20467;-70
2023/03/03 04:14:05;;;;;;;9.73;4.70;;;2.10;99.90;;;;;;5001162;28;20461;-70
2023/03/03 04:16:34;;;;;;;7.43;4.50;;;2.20;99.90;;;;;;5007904;28;20514;-70
2023/03/03 04:19:01;;;;;;;3.13;2.07;;;2.30;99.90;;;;;;4999112;28;20632;-70
2023/03/03 04:21:28;;;;;;;7.80;4.07;;;2.50;99.90;;;;;;5003912;28;20465;-70
2023/03/03 04:23:55;;;;;;;9.47;3.43;;;2.60;99.90;;;;;;5000203;28;20519;-70
2023/03/03 04:26:25;;;;;;;8.20;4.63;;;2.60;99.90;;;;;;5005761;28;20581;-70
2023/03/03 04:28:52;;;;;;;10.30;4.27;;;2.60;99.90;;;;;;5004057;28;20461;-71
2023/03/03 04:31:19;;;;;;;3.63;1.90;;;2.60;99.90;;;;;;4999699;28;20424;-70
2023/03/03 04:33:46;;;;;;;11.77;5.10;;;2.40;99.90;;;;;;4997444;28;20425;-70
2023/03/03 04:36:13;;;;;;;5.10;4.30;;;2.20;99.90;;;;;;5003739;28;20507;-70
2023/03/03 04:38:40;;;;;;;14.77;5.07;;;2.20;99.90;;;;;;5005805;28;20488;-70
2023/03/03 04:41:07;;;;;;;9.57;4.60;;;2.20;99.90;;;;;;5004310;28;20457;-70
2023/03/03 04:43:35;;;;;;;9.27;4.97;;;2.20;99.90;;;;;;5006071;28;20462;-70
2023/03/03 04:46:02;;;;;;;6.97;5.03;;;2.40;99.90;;;;;;4998484;28;20579;-70
2023/03/03 04:48:29;;;;;;;28.77;8.30;;;2.50;99.90;;;;;;5006916;28;20461;-70
2023/03/03 04:50:56;;;;;;;9.93;5.00;;;2.70;99.90;;;;;;5011090;28;20458;-70
2023/03/03 04:53:23;;;;;;;9.83;6.17;;;2.60;99.90;;;;;;5023652;28;20512;-70
2023/03/03 04:55:51;;;;;;;5.57;3.80;;;2.50;99.90;;;;;;5006883;28;20553;-70
2023/03/03 04:58:18;;;;;;;3.73;3.07;;;2.30;99.90;;;;;;5008514;28;20435;-70
2023/03/03 05:00:46;;;;;;;13.03;5.23;;;2.20;99.90;;;;;;5001297;28;20490;-69
2023/03/03 05:03:13;;;;;;;8.03;4.70;;;2.30;99.90;;;;;;5004557;28;20558;-70
2023/03/03 05:05:43;;;;;;;13.10;6.23;;;2.50;99.90;;;;;;5003273;28;21068;-70
2023/03/03 05:08:10;;;;;;;14.37;6.57;;;2.60;99.90;;;;;;5008193;28;20464;-70
2023/03/03 05:10:37;;;;;;;9.70;5.70;;;2.60;99.90;;;;;;5009612;28;20432;-70
2023/03/03 05:13:04;;;;;;;16.40;6.10;;;2.70;99.90;;;;;;5004962;28;20461;-70
2023/03/03 05:15:32;;;;;;;13.17;4.73;;;2.60;99.90;;;;;;5002794;28;20461;-70
2023/03/03 05:18:00;;;;;;;16.57;6.63;;;2.70;99.90;;;;;;5005923;28;20477;-70
2023/03/03 05:20:27;;;;;;;13.03;5.87;;;2.90;99.90;;;;;;5006511;28;20795;-69
2023/03/03 05:22:56;;;;;;;9.40;6.53;;;2.80;99.90;;;;;;5003720;28;20465;-70
2023/03/03 05:25:23;;;;;;;15.53;5.30;;;3.00;99.90;;;;;;5005093;28;20553;-70
2023/03/03 05:27:50;;;;;;;10.93;6.60;;;3.00;99.90;;;;;;5005434;28;20464;-70
2023/03/03 05:30:17;;;;;;;8.53;6.73;;;3.00;99.90;;;;;;5007404;28;20559;-69
2023/03/03 05:32:45;;;;;;;6.00;3.37;;;2.80;99.90;;;;;;5001803;28;20523;-70
2023/03/03 05:35:13;;;;;;;10.60;3.60;;;2.70;99.90;;;;;;5009266;28;20493;-70
2023/03/03 05:37:46;;;;;;;19.30;6.90;;;2.40;99.90;;;;;;5003003;28;20534;-70
2023/03/03 05:40:13;;;;;;;13.40;5.20;;;2.40;99.90;;;;;;5005414;28;20460;-70
2023/03/03 05:42:40;;;;;;;12.60;6.80;;;2.50;99.90;;;;;;5014320;28;20530;-70
2023/03/03 05:45:08;;;;;;;17.10;7.40;;;2.40;99.90;;;;;;5009128;28;20859;-70
2023/03/03 05:47:35;;;;;;;22.33;6.90;;;2.50;99.90;;;;;;5011790;28;20485;-70
2023/03/03 05:50:02;;;;;;;25.30;7.37;;;2.50;99.90;;;;;;5002612;28;20497;-71
2023/03/03 05:52:31;;;;;;;12.03;5.50;;;2.60;99.90;;;;;;5008448;28;20814;-70
2023/03/03 05:54:58;;;;;;;16.80;7.07;;;2.70;99.90;;;;;;5003311;28;20472;-70
2023/03/03 05:57:25;;;;;;;11.60;6.77;;;2.70;99.90;;;;;;5008538;28;20446;-70
2023/03/03 05:59:52;;;;;;;14.30;7.20;;;2.70;99.90;;;;;;5011777;28;20431;-70
2023/03/03 06:02:19;;;;;;;17.13;5.97;;;2.70;99.90;;;;;;5012507;28;20915;-70
2023/03/03 06:04:46;;;;;;;11.10;5.80;;;2.70;99.90;;;;;;5009308;28;20445;-70
2023/03/03 06:07:13;;;;;;;6.97;4.50;;;2.70;99.90;;;;;;5006194;28;20490;-70
2023/03/03 06:09:41;;;;;;;18.23;4.77;;;2.70;99.90;;;;;;5005902;28;20536;-72
2023/03/03 06:12:08;;;;;;;15.57;6.23;;;2.70;99.90;;;;;;5005696;28;20474;-69
2023/03/03 06:14:35;;;;;;;15.83;6.83;;;2.50;99.90;;;;;;5009583;28;20527;-70
2023/03/03 06:17:02;;;;;;;19.23;8.57;;;2.50;99.90;;;;;;5009483;28;20471;-70
2023/03/03 06:19:29;;;;;;;20.33;8.77;;;2.40;99.90;;;;;;5009046;28;20570;-69
2023/03/03 06:21:56;;;;;;;15.93;6.50;;;2.40;99.90;;;;;;5006219;28;20965;-70
2023/03/03 06:24:24;;;;;;;13.33;4.63;;;2.40;99.90;;;;;;5007580;28;20970;-70
2023/03/03 06:26:52;;;;;;;14.93;3.90;;;2.30;99.90;;;;;;5013421;28;20464;-70
2023/03/03 06:29:19;;;;;;;18.97;5.43;;;2.40;99.90;;;;;;5001962;28;20580;-70
2023/03/03 06:31:46;;;;;;;32.13;8.00;;;2.40;99.90;;;;;;5006730;28;20544;-70
2023/03/03 06:34:15;;;;;;;13.97;6.60;;;2.40;99.90;;;;;;5007573;28;20532;-71
2023/03/03 06:36:42;;;;;;;20.47;6.57;;;2.50;99.90;;;;;;5003534;28;20746;-71
2023/03/03 06:39:09;;;;;;;21.53;8.13;;;2.60;99.90;;;;;;5007525;28;20849;-71
2023/03/03 06:41:36;;;;;;;18.87;7.50;;;2.60;99.90;;;;;;5008317;28;20807;-71
2023/03/03 06:44:04;;;;;;;22.13;6.60;;;2.60;99.90;;;;;;5008585;28;20911;-71
2023/03/03 06:46:31;;;;;;;8.57;6.20;;;2.70;99.90;;;;;;5012798;28;20456;-72
2023/03/03 06:48:58;;;;;;;12.33;7.07;;;2.80;99.90;;;;;;5008061;28;20510;-71
2023/03/03 06:51:29;;;;;;;19.03;5.70;;;2.60;99.90;;;;;;5010412;28;20449;-71
2023/03/03 06:53:58;;;;;;;15.47;5.87;;;2.70;99.90;;;;;;5005161;28;20420;-70
2023/03/03 06:56:25;;;;;;;9.07;5.83;;;2.80;99.90;;;;;;5016794;28;20474;-70
2023/03/03 06:58:54;;;;;;;12.20;6.63;;;2.70;99.90;;;;;;5005712;28;21006;-70
2023/03/03 07:01:23;;;;;;;6.70;3.73;;;2.70;99.90;;;;;;5005990;28;20803;-72
2023/03/03 07:03:49;;;;;;;15.70;6.90;;;2.80;99.90;;;;;;5001040;28;20440;-72
2023/03/03 07:06:23;;;;;;;13.60;6.33;;;2.70;99.90;;;;;;5003469;28;20983;-72
2023/03/03 07:08:51;;;;;;;7.97;6.23;;;2.80;99.90;;;;;;5006803;28;20493;-70
2023/03/03 07:11:20;;;;;;;9.23;3.63;;;2.60;99.90;;;;;;5003798;28;20461;-70
2023/03/03 07:13:49;;;;;;;22.50;6.90;;;2.50;99.90;;;;;;5004246;28;20455;-71
2023/03/03 07:16:18;;;;;;;22.67;6.83;;;2.50;99.90;;;;;;5008156;28;20483;-70
2023/03/03 07:18:50;;;;;;;14.03;6.83;;;2.60;99.90;;;;;;5008361;28;20486;-70
2023/03/03 07:21:19;;;;;;;9.60;6.67;;;2.60;99.90;;;;;;5002495;28;20472;-70
2023/03/03 07:23:48;;;;;;;14.57;7.40;;;2.70;99.90;;;;;;5007689;28;20518;-70
2023/03/03 07:26:18;;;;;;;15.00;6.27;;;2.60;99.90;;;;;;5012152;28;20484;-70
2023/03/03 07:28:52;;;;;;;30.83;8.23;;;2.50;99.90;;;;;;5008684;28;20527;-70
2023/03/03 07:31:28;;;;;;;11.57;5.73;;;2.40;99.90;;;;;;5003264;28;20962;-70
2023/03/03 07:33:59;;;;;;;24.70;8.37;;;2.40;99.90;;;;;;5001510;28;20427;-70
2023/03/03 07:36:30;;;;;;;25.77;8.47;;;2.20;99.90;;;;;;4999574;28;20460;-70
2023/03/03 07:39:00;;;;;;;24.73;6.53;;;2.30;99.90;;;;;;5001388;28;20470;-70
2023/03/03 07:41:28;;;;;;;27.23;6.67;;;2.40;99.90;;;;;;5004477;28;20837;-70
2023/03/03 07:43:59;;;;;;;15.63;7.20;;;2.50;99.90;;;;;;5009880;28;20452;-71
2023/03/03 07:46:30;;;;;;;16.53;8.73;;;2.70;99.90;;;;;;5002966;28;20452;-71
2023/03/03 07:49:00;;;;;;;21.57;6.90;;;2.90;99.90;;;;;;5007490;28;20538;-70
2023/03/03 07:51:30;;;;;;;18.97;5.73;;;2.80;99.90;;;;;;5011988;28;20460;-70
2023/03/03 07:54:14;;;;;;;17.83;6.07;;;2.60;99.90;;;;;;5010979;28;20883;-71
2023/03/03 07:56:41;;;;;;;14.37;7.20;;;2.50;99.90;;;;;;5013119;28;20463;-69
2023/03/03 07:59:20;;;;;;;14.17;6.30;;;2.50;99.90;;;;;;5012256;28;20506;-70
2023/03/03 08:01:50;;;;;;;15.83;5.57;;;2.60;99.90;;;;;;5000138;28;20439;-70
2023/03/03 08:04:25;;;;;;;13.90;6.63;;;2.70;99.90;;;;;;5001070;28;20479;-70
2023/03/03 08:06:55;;;;;;;14.50;6.47;;;2.80;99.90;;;;;;5007608;28;20459;-71
2023/03/03 08:09:38;;;;;;;13.83;5.17;;;2.90;99.90;;;;;;5003095;28;20438;-71
2023/03/03 08:12:31;;;;;;;5.97;4.50;;;3.00;99.90;;;;;;5008589;28;20865;-70
2023/03/03 08:15:17;;;;;;;13.20;5.13;;;3.10;99.90;;;;;;5000847;28;20429;-70
2023/03/03 08:17:45;;;;;;;17.50;6.50;;;3.00;99.90;;;;;;5003130;28;20505;-70
2023/03/03 08:20:48;;;;;;;12.43;3.87;;;3.10;99.90;;;;;;5009789;28;20440;-70
2023/03/03 08:23:18;;;;;;;7.40;4.90;;;3.10;99.90;;;;;;5004336;28;20427;-70
2023/03/03 08:25:46;;;;;;;7.17;2.87;;;3.00;99.90;;;;;;5003059;28;20458;-70
2023/03/03 08:28:13;;;;;;;10.33;4.93;;;2.80;99.90;;;;;;5007983;28;20514;-70
2023/03/03 08:30:40;;;;;;;17.70;5.70;;;2.60;99.90;;;;;;5002392;28;20936;-70
2023/03/03 08:33:07;;;;;;;10.80;7.00;;;2.80;99.90;;;;;;5004576;28;20435;-70
2023/03/03 08:35:34;;;;;;;15.43;5.20;;;2.90;99.90;;;;;;4997064;28;20466;-69
2023/03/03 08:38:01;;;;;;;9.20;5.03;;;2.90;99.90;;;;;;4999561;28;20482;-70
2023/03/03 08:40:29;;;;;;;7.20;4.33;;;2.90;99.90;;;;;;5005027;28;20513;-70
2023/03/03 08:42:59;;;;;;;13.10;5.27;;;2.80;99.90;;;;;;5008995;28;20504;-70
2023/03/03 08:45:27;;;;;;;9.20;3.70;;;2.70;99.90;;;;;;5006812;28;20923;-70
2023/03/03 08:47:55;;;;;;;14.33;6.10;;;2.60;99.90;;;;;;4997881;28;20472;-70
2023/03/03 08:50:22;;;;;;;10.83;4.07;;;2.60;99.90;;;;;;5007853;28;20433;-69
2023/03/03 08:52:49;;;;;;;7.90;7.10;;;2.80;99.90;;;;;;5005372;28;20549;-71
2023/03/03 08:55:16;;;;;;;18.00;8.93;;;2.80;99.90;;;;;;5004531;28;20811;-71
2023/03/03 08:57:44;;;;;;;12.17;6.77;;;2.70;99.90;;;;;;5013645;28;20579;-70
2023/03/03 09:00:16;;;;;;;12.57;5.57;;;2.90;99.90;;;;;;5006667;28;20469;-70
2023/03/03 09:02:43;;;;;;;10.33;5.50;;;2.90;99.90;;;;;;4988908;28;20833;-71
2023/03/03 09:05:11;;;;;;;5.67;4.03;;;2.70;99.90;;;;;;5022578;28;20527;-71
2023/03/03 09:07:39;;;;;;;15.03;5.07;;;2.70;99.90;;;;;;5003554;28;20564;-71
2023/03/03 09:10:07;;;;;;;17.63;6.77;;;2.80;99.90;;;;;;5013047;28;20432;-70
2023/03/03 09:12:35;;;;;;;22.03;5.43;;;2.90;99.90;;;;;;5003894;28;20833;-71
2023/03/03 09:15:15;;;;;;;13.87;6.03;;;3.00;99.90;;;;;;5003850;28;20949;-71
2023/03/03 09:17:42;;;;;;;9.00;4.77;;;3.10;99.90;;;;;;5013279;28;20476;-70
2023/03/03 09:20:30;;;;;;;4.07;2.40;;;3.30;99.90;;;;;;5011162;28;20511;-71
2023/03/03 09:22:58;;;;;;;9.63;4.67;;;3.30;99.90;;;;;;5005514;28;20543;-71
2023/03/03 09:25:33;;;;;;;5.23;2.90;;;3.10;99.90;;;;;;5007647;28;20841;-71
2023/03/03 09:28:00;;;;;;;18.27;6.57;;;2.90;99.90;;;;;;5006371;28;20571;-71
2023/03/03 09:30:38;;;;;;;8.80;3.90;;;2.80;99.90;;;;;;5005500;28;20557;-71
2023/03/03 09:33:23;;;;;;;16.30;6.30;;;2.80;99.90;;;;;;5007093;28;20501;-71
2023/03/03 09:35:52;;;;;;;29.63;7.37;;;2.80;99.90;;;;;;5002268;28;20445;-70
2023/03/03 09:38:28;;;;;;;13.37;6.43;;;3.10;99.90;;;;;;5004892;28;20458;-71
2023/03/03 09:41:16;;;;;;;6.10;1.90;;;3.30;99.90;;;;;;5011151;28;20514;-71
2023/03/03 09:43:51;;;;;;;11.40;5.17;;;3.30;99.90;;;;;;5010201;28;20510;-71
2023/03/03 09:46:33;;;;;;;10.83;5.87;;;3.20;99.90;;;;;;5009159;28;21086;-71
2023/03/03 09:49:14;;;;;;;4.97;3.57;;;3.20;99.90;;;;;;5016748;28;20492;-71
2023/03/03 09:52:08;;;;;;;5.47;3.43;;;3.20;99.90;;;;;;5011316;28;20439;-71
2023/03/03 09:54:50;;;;;;;9.87;4.03;;;3.00;99.90;;;;;;5010458;28;20460;-71
2023/03/03 09:57:23;;;;;;;13.33;5.50;;;3.20;99.90;;;;;;5004904;28;20553;-70
2023/03/03 10:00:10;;;;;;;7.33;4.10;;;3.40;99.90;;;;;;5025373;28;20447;-71
2023/03/03 10:02:54;;;;;;;14.70;5.10;;;3.40;99.90;;;;;;5016702;28;20477;-71
2023/03/03 10:05:39;;;;;;;8.47;4.17;;;3.50;99.90;;;;;;5005132;28;20464;-71
2023/03/03 10:08:28;;;;;;;3.23;2.60;;;3.60;99.90;;;;;;5017991;28;20485;-70
2023/03/03 10:11:04;;;;;;;15.00;5.43;;;3.50;99.90;;;;;;5010660;28;20511;-71
2023/03/03 10:13:52;;;;;;;12.17;4.33;;;3.40;99.90;;;;;;5009334;28;20522;-71
2023/03/03 10:16:31;;;;;;;8.20;2.60;;;3.60;99.90;;;;;;5003551;28;20488;-70
2023/03/03 10:19:03;;;;;;;10.37;2.43;;;3.60;99.90;;;;;;5002394;28;20424;-71
2023/03/03 10:21:39;;;;;;;9.10;5.60;;;3.80;99.90;;;;;;5008221;28;20493;-71
2023/03/03 10:24:23;;;;;;;7.50;3.73;;;3.60;99.90;;;;;;4963724;28;20499;-71
2023/03/03 10:27:03;;;;;;;10.97;4.17;;;3.80;99.90;;;;;;5012405;28;20444;-71
2023/03/03 10:29:43;;;;;;;7.13;3.63;;;3.70;99.90;;;;;;5011806;28;20474;-70
2023/03/03 10:32:36;;;;;;;6.60;3.57;;;3.90;99.90;;;;;;5012442;28;20427;-70
2023/03/03 10:35:23;;;;;;;12.20;5.43;;;4.00;99.90;;;;;;5007883;28;20435;-70
2023/03/03 10:38:02;;;;;;;7.30;4.10;;;4.00;99.90;;;;;;5007668;28;20481;-71
2023/03/03 10:40:36;;;;;;;18.57;4.57;;;4.20;99.90;;;;;;5003430;28;20436;-71
2023/03/03 10:43:39;;;;;;;2.10;1.90;;;4.10;99.90;;;;;;4997930;28;20433;-70
2023/03/03 10:46:36;;;;;;;5.47;3.53;;;4.10;99.90;;;;;;5012406;28;20559;-70
2023/03/03 10:49:19;;;;;;;8.00;3.03;;;3.90;99.90;;;;;;5004482;28;20570;-70
2023/03/03 10:52:03;;;;;;;12.87;5.70;;;3.90;99.90;;;;;;5005028;28;20481;-71
2023/03/03 10:54:48;;;;;;;15.27;6.00;;;3.90;99.90;;;;;;5005096;28;20876;-70
2023/03/03 10:57:20;;;;;;;8.53;4.87;;;4.10;99.90;;;;;;5011384;28;20460;-71
2023/03/03 11:00:14;;;;;;;7.67;4.00;;;4.30;99.90;;;;;;5009361;28;20451;-70
2023/03/03 11:02:55;;;;;;;13.40;4.60;;;4.60;99.90;;;;;;4998594;28;20454;-71
2023/03/03 11:05:32;;;;;;;13.90;5.20;;;4.70;99.90;;;;;;5013209;28;20560;-70
2023/03/03 11:08:05;;;;;;;14.33;4.40;;;4.90;99.90;;;;;;5005250;28;20486;-71
2023/03/03 11:10:55;;;;;;;13.03;4.90;;;5.00;99.90;;;;;;5006763;28;20439;-70
2023/03/03 11:13:28;;;;;;;10.77;3.63;;;5.00;99.90;;;;;;5009597;28;20428;-71
2023/03/03 11:16:13;;;;;;;11.87;4.07;;;5.10;99.90;;;;;;5006461;28;20418;-71
2023/03/03 11:19:00;;;;;;;9.00;5.17;;;4.80;99.90;;;;;;5006122;28;20441;-70
2023/03/03 11:21:33;;;;;;;10.37;4.03;;;4.90;99.90;;;;;;5022552;28;20440;-71
2023/03/03 11:24:13;;;;;;;18.80;6.07;;;4.90;99.90;;;;;;5004181;28;20433;-71
2023/03/03 11:27:03;;;;;;;15.30;6.70;;;4.90;99.90;;;;;;5005394;28;20489;-70
2023/03/03 11:29:45;;;;;;;19.13;6.23;;;4.70;99.90;;;;;;4996954;28;20477;-71
2023/03/03 11:32:27;;;;;;;19.93;7.40;;;4.80;99.90;;;;;;5006027;28;20500;-71
2023/03/03 11:35:04;;;;;;;15.10;6.70;;;4.80;99.90;;;;;;5004923;28;20413;-70
2023/03/03 11:37:42;;;;;;;16.90;8.40;;;4.60;99.90;;;;;;5000141;28;20921;-71
2023/03/03 11:40:20;;;;;;;7.97;4.03;;;4.70;99.90;;;;;;5006505;28;20527;-71
2023/03/03 11:43:00;;;;;;;17.77;6.10;;;4.50;99.90;;;;;;5008689;28;20466;-70
2023/03/03 11:45:32;;;;;;;6.27;4.07;;;4.60;99.90;;;;;;5011412;28;20507;-71
2023/03/03 11:48:06;;;;;;;11.00;5.03;;;4.80;99.90;;;;;;5000648;28;20946;-71
2023/03/03 11:50:39;;;;;;;9.07;4.07;;;5.00;99.90;;;;;;5008742;28;20751;-71
2023/03/03 11:53:24;;;;;;;11.70;4.43;;;4.80;99.90;;;;;;5006476;28;20465;-70
2023/03/03 11:55:58;;;;;;;17.70;5.37;;;4.80;99.90;;;;;;5001166;28;20831;-70
2023/03/03 11:58:30;;;;;;;10.30;4.27;;;4.70;99.90;;;;;;5003866;28;20471;-70
2023/03/03 12:01:04;;;;;;;13.30;3.70;;;4.80;99.90;;;;;;5009704;28;20486;-71
2023/03/03 12:03:35;;;;;;;15.90;7.10;;;5.00;99.90;;;;;;5005202;28;20516;-70
2023/03/03 12:06:12;;;;;;;12.03;5.03;;;5.00;99.90;;;;;;5007724;28;20465;-70
2023/03/03 12:09:19;;;;;;;17.13;5.90;;;4.90;99.90;;;;;;5009397;28;20482;-70
2023/03/03 12:12:01;;;;;;;13.17;5.43;;;5.20;99.90;;;;;;4998580;28;20485;-71
2023/03/03 12:14:57;;;;;;;11.27;4.37;;;5.10;99.90;;;;;;5007508;28;20457;-71
2023/03/03 12:17:40;;;;;;;11.83;6.23;;;5.20;99.90;;;;;;5001268;28;20905;-71
2023/03/03 12:20:15;;;;;;;15.30;5.87;;;5.20;99.90;;;;;;4999393;28;20484;-70
2023/03/03 12:22:49;;;;;;;10.50;5.50;;;5.30;99.90;;;;;;5007528;28;20487;-71
2023/03/03 12:25:25;;;;;;;24.07;9.00;;;5.40;99.90;;;;;;5000068;28;20460;-71
2023/03/03 12:28:00;;;;;;;26.27;7.87;;;5.10;99.90;;;;;;5001431;28;21068;-71
2023/03/03 12:30:52;;;;;;;23.80;9.40;;;4.80;99.90;;;;;;5011106;28;20941;-71
2023/03/03 12:33:27;;;;;;;22.67;8.00;;;4.90;99.90;;;;;;5011002;28;20454;-71
2023/03/03 12:36:04;;;;;;;19.40;7.23;;;5.00;99.90;;;;;;5006229;28;20426;-70
2023/03/03 12:38:40;;;;;;;8.50;3.70;;;5.30;99.90;;;;;;5010892;28;20424;-71
2023/03/03 12:41:15;;;;;;;7.47;5.07;;;5.50;99.90;;;;;;5012386;28;20419;-71
2023/03/03 12:43:57;;;;;;;14.80;4.93;;;5.60;99.90;;;;;;5008225;28;20778;-71
2023/03/03 12:46:34;;;;;;;10.93;4.27;;;6.00;99.90;;;;;;5004470;28;20491;-70
2023/03/03 12:49:00;;;;;;;9.53;4.00;;;6.00;99.90;;;;;;5004701;28;20473;-71
2023/03/03 12:51:42;;;;;;;5.67;2.37;;;6.00;99.90;;;;;;5006781;28;20549;-70
2023/03/03 12:54:19;;;;;;;7.07;4.30;;;6.00;99.90;;;;;;5006666;28;20560;-69
2023/03/03 12:56:51;;;;;;;8.27;3.80;;;6.10;99.90;;;;;;5002955;28;21003;-70
2023/03/03 12:59:25;;;;;;;12.07;4.20;;;5.80;99.90;;;;;;5006047;28;20515;-70
2023/03/03 13:02:10;;;;;;;7.90;3.63;;;5.80;99.90;;;;;;5017435;28;20435;-70
2023/03/03 13:04:41;;;;;;;16.13;4.90;;;6.00;99.90;;;;;;5007233;28;20445;-70
2023/03/03 13:07:19;;;;;;;7.00;4.90;;;6.10;99.90;;;;;;5000424;28;20448;-70
2023/03/03 13:10:02;;;;;;;10.60;3.87;;;6.50;99.90;;;;;;5004138;28;20468;-69
2023/03/03 13:12:36;;;;;;;18.87;5.10;;;7.20;99.90;;;;;;5005737;28;20423;-70
2023/03/03 13:15:15;;;;;;;4.77;2.93;;;7.80;99.90;;;;;;5009717;28;20419;-70